createdAt,value
2023-05-19T00:01:23.567Z,0.82
2023-05-19T00:03:57.987Z,0.52
2023-05-19T00:06:28.031Z,0.68
2023-05-19T00:09:07.397Z,0.70
2023-05-19T00:11:39.438Z,0.50
2023-05-19T00:14:09.644Z,0.68
2023-05-19T00:16:38.334Z,0.55
2023-05-19T00:19:10.473Z,0.30
2023-05-19T00:21:39.238Z,0.63
2023-05-19T00:24:07.760Z,0.50
2023-05-19T00:26:35.761Z,0.80
2023-05-19T00:29:03.393Z,0.52
2023-05-19T00:31:31.909Z,0.38
2023-05-19T00:33:59.607Z,0.45
2023-05-19T00:36:27.338Z,0.47
2023-05-19T00:38:54.972Z,0.60
2023-05-19T00:41:23.873Z,0.40
2023-05-19T00:43:51.687Z,0.50
2023-05-19T00:46:20.290Z,0.50
2023-05-19T00:48:47.865Z,0.70
2023-05-19T00:51:17.310Z,0.55
2023-05-19T00:53:49.313Z,0.80
2023-05-19T00:56:17.637Z,0.50
2023-05-19T00:58:45.694Z,0.80
2023-05-19T01:01:14.886Z,0.30
2023-05-19T01:03:44.077Z,0.80
2023-05-19T01:06:12.438Z,0.63
2023-05-19T01:08:40.310Z,0.73
2023-05-19T01:11:08.787Z,0.50
2023-05-19T01:13:38.148Z,0.70
2023-05-19T01:16:54.377Z,0.47
2023-05-19T01:19:30.907Z,0.40
2023-05-19T01:22:01.314Z,0.70
2023-05-19T01:24:34.698Z,0.40
2023-05-19T01:30:18.373Z,0.70
2023-05-19T01:32:48.097Z,0.80
2023-05-19T01:35:16.925Z,0.60
2023-05-19T01:37:45.586Z,0.80
2023-05-19T01:40:13.674Z,0.50
2023-05-19T01:42:42.439Z,0.63
2023-05-19T01:45:10.793Z,0.28
2023-05-19T01:47:42.958Z,0.60
2023-05-19T01:50:11.282Z,0.80
2023-05-19T01:52:38.858Z,0.55
2023-05-19T01:55:08.305Z,0.50
2023-05-19T01:57:55.788Z,0.57
2023-05-19T02:00:55.188Z,0.55
2023-05-19T02:03:52.053Z,0.63
2023-05-19T02:06:38.446Z,0.50
2023-05-19T02:09:27.122Z,0.75
2023-05-19T02:12:25.788Z,0.30
2023-05-19T02:15:16.642Z,0.88
2023-05-19T02:17:50.996Z,0.60
2023-05-19T02:20:19.479Z,0.52
2023-05-19T02:22:47.268Z,0.70
2023-05-19T02:25:15.030Z,0.50
2023-05-19T02:27:43.260Z,0.43
2023-05-19T02:30:11.263Z,0.65
2023-05-19T02:32:38.924Z,0.73
2023-05-19T02:35:07.069Z,0.90
2023-05-19T02:37:35.517Z,0.32
2023-05-19T02:40:03.129Z,0.32
2023-05-19T02:42:30.809Z,0.60
2023-05-19T02:44:58.422Z,0.30
2023-05-19T02:47:26.022Z,0.50
2023-05-19T02:49:53.654Z,0.65
2023-05-19T02:52:21.524Z,0.45
2023-05-19T02:54:49.056Z,0.50
2023-05-19T02:57:16.754Z,0.47
2023-05-19T02:59:44.658Z,0.57
2023-05-19T03:02:12.568Z,0.88
2023-05-19T03:04:42.349Z,0.25
2023-05-19T03:07:10.551Z,0.50
2023-05-19T03:09:38.529Z,0.50
2023-05-19T03:12:07.785Z,0.47
2023-05-19T03:14:37.913Z,0.32
2023-05-19T03:17:08.198Z,0.60
2023-05-19T03:19:36.042Z,0.80
2023-05-19T03:22:03.866Z,0.55
2023-05-19T03:24:31.743Z,0.52
2023-05-19T03:26:59.444Z,0.55
2023-05-19T03:29:27.117Z,0.60
2023-05-19T03:31:54.692Z,0.38
2023-05-19T03:34:22.722Z,0.38
2023-05-19T03:36:50.496Z,0.77
2023-05-19T03:39:18.109Z,0.22
2023-05-19T03:41:45.974Z,0.40
2023-05-19T03:44:13.550Z,0.60
2023-05-19T03:46:41.088Z,0.38
2023-05-19T03:49:08.779Z,0.88
2023-05-19T03:51:36.833Z,0.47
2023-05-19T03:54:04.689Z,0.68
2023-05-19T03:56:33.111Z,1.00
2023-05-19T03:59:00.771Z,0.70
2023-05-19T04:01:28.301Z,0.68
2023-05-19T04:03:56.225Z,0.82
2023-05-19T04:06:24.288Z,0.50
2023-05-19T04:08:51.855Z,0.60
2023-05-19T04:11:22.452Z,0.80
2023-05-19T04:13:50.306Z,0.77
2023-05-19T04:16:18.041Z,0.85
2023-05-19T04:18:46.683Z,0.65
2023-05-19T04:21:14.316Z,0.80
2023-05-19T04:23:41.901Z,0.30
2023-05-19T04:26:09.585Z,0.60
2023-05-19T04:28:40.159Z,0.60
2023-05-19T04:31:11.198Z,0.60
2023-05-19T04:33:39.710Z,1.00
2023-05-19T04:36:11.600Z,0.75
2023-05-19T04:38:43.118Z,0.60
2023-05-19T04:41:10.626Z,0.70
2023-05-19T04:43:44.874Z,0.57
2023-05-19T04:46:13.824Z,0.70
2023-05-19T04:48:41.786Z,0.95
2023-05-19T04:51:09.459Z,0.80
2023-05-19T04:53:37.281Z,0.47
2023-05-19T04:56:05.099Z,0.50
2023-05-19T04:58:33.604Z,1.13
2023-05-19T05:01:01.252Z,0.73
2023-05-19T05:03:28.850Z,0.80
2023-05-19T05:05:57.032Z,0.47
2023-05-19T05:08:24.588Z,0.65
2023-05-19T05:10:53.449Z,0.70
2023-05-19T05:13:23.676Z,0.80
2023-05-19T05:15:52.641Z,0.77
2023-05-19T05:18:20.767Z,0.47
2023-05-19T05:20:49.054Z,0.93
2023-05-19T05:23:17.065Z,0.68
2023-05-19T05:25:45.503Z,0.73
2023-05-19T05:28:13.376Z,0.95
2023-05-19T05:30:41.692Z,0.47
2023-05-19T05:33:09.823Z,0.73
2023-05-19T05:35:39.673Z,0.75
2023-05-19T05:38:07.357Z,0.70
2023-05-19T05:40:34.990Z,1.17
2023-05-19T05:43:02.808Z,0.77
2023-05-19T05:45:30.539Z,1.10
2023-05-19T05:47:58.514Z,0.80
2023-05-19T05:50:26.572Z,0.80
2023-05-19T05:52:56.104Z,0.50
2023-05-19T05:55:24.319Z,0.93
2023-05-19T05:57:52.008Z,0.50
2023-05-19T06:00:20.131Z,0.82
2023-05-19T06:02:50.665Z,1.00
2023-05-19T06:05:18.717Z,0.80
2023-05-19T06:07:46.888Z,0.90
2023-05-19T06:10:14.466Z,0.70
2023-05-19T06:12:43.400Z,0.98
2023-05-19T06:15:11.117Z,0.70
2023-05-19T06:17:38.689Z,0.70
2023-05-19T06:20:06.981Z,1.13
2023-05-19T06:22:34.494Z,0.95
2023-05-19T06:25:02.013Z,1.70
2023-05-19T06:27:29.731Z,0.90
2023-05-19T06:29:57.253Z,0.63
2023-05-19T06:32:25.076Z,1.00
2023-05-19T06:34:54.881Z,0.68
2023-05-19T06:37:23.736Z,1.10
2023-05-19T06:39:53.807Z,0.88
2023-05-19T06:42:25.548Z,0.95
2023-05-19T06:44:53.784Z,0.73
2023-05-19T06:47:21.371Z,0.65
2023-05-19T06:49:55.652Z,0.93
2023-05-19T06:52:23.939Z,0.80
2023-05-19T06:54:51.562Z,0.90
2023-05-19T06:57:19.195Z,0.85
2023-05-19T06:59:46.936Z,0.85
2023-05-19T07:02:14.653Z,0.90
2023-05-19T07:04:43.294Z,1.20
2023-05-19T07:07:10.850Z,1.00
2023-05-19T07:09:38.365Z,0.80
2023-05-19T07:12:06.634Z,1.30
2023-05-19T07:14:34.207Z,0.93
2023-05-19T07:17:01.989Z,0.98
2023-05-19T07:19:30.003Z,0.98
2023-05-19T07:21:59.482Z,0.90
2023-05-19T07:24:27.734Z,0.70
2023-05-19T07:26:55.445Z,1.77
2023-05-19T07:29:23.158Z,1.25
2023-05-19T07:31:54.448Z,1.35
2023-05-19T07:34:22.175Z,0.80
2023-05-19T07:36:50.205Z,0.88
2023-05-19T07:39:18.326Z,1.48
2023-05-19T07:41:52.747Z,0.90
2023-05-19T07:44:20.337Z,1.10
2023-05-19T07:46:48.240Z,0.88
2023-05-19T07:49:16.066Z,0.70
2023-05-19T07:51:43.774Z,0.90
2023-05-19T07:54:11.477Z,0.77
2023-05-19T07:56:39.066Z,0.82
2023-05-19T07:59:08.151Z,0.63
2023-05-19T08:01:35.758Z,0.90
2023-05-19T08:04:04.171Z,0.95
2023-05-19T08:06:32.097Z,1.00
2023-05-19T08:08:59.988Z,0.85
2023-05-19T08:11:27.618Z,0.80
2023-05-19T08:13:55.112Z,0.70
2023-05-19T08:16:23.081Z,0.73
2023-05-19T08:18:51.041Z,0.63
2023-05-19T08:21:18.695Z,0.80
2023-05-19T08:23:46.502Z,0.75
2023-05-19T08:26:14.231Z,1.02
2023-05-19T08:28:41.838Z,0.40
2023-05-19T08:31:09.485Z,0.90
2023-05-19T08:33:37.801Z,1.55
2023-05-19T08:36:06.721Z,0.80
2023-05-19T08:38:34.302Z,0.50
2023-05-19T08:41:03.184Z,0.60
2023-05-19T08:43:31.221Z,0.50
2023-05-19T08:46:00.835Z,0.80
2023-05-19T08:48:31.832Z,0.77
2023-05-19T08:51:05.070Z,0.60
2023-05-19T08:53:38.053Z,0.82
2023-05-19T08:56:18.310Z,1.00
2023-05-19T08:58:48.439Z,0.60
2023-05-19T09:01:19.908Z,0.70
2023-05-19T09:03:50.533Z,0.90
2023-05-19T09:06:18.620Z,0.50
2023-05-19T09:08:47.193Z,0.70
2023-05-19T09:11:15.171Z,0.73
2023-05-19T09:13:42.978Z,0.60
2023-05-19T09:16:12.085Z,0.60
2023-05-19T09:18:41.986Z,0.30
2023-05-19T09:21:11.658Z,0.50
2023-05-19T09:23:40.468Z,0.40
2023-05-19T09:26:08.310Z,0.57
2023-05-19T09:28:38.858Z,0.50
2023-05-19T09:31:08.711Z,0.90
2023-05-19T09:33:38.257Z,0.50
2023-05-19T09:36:08.653Z,0.30
2023-05-19T09:38:37.275Z,0.43
2023-05-19T09:41:06.335Z,0.50
2023-05-19T09:43:36.653Z,0.30
2023-05-19T09:46:06.014Z,0.32
2023-05-19T09:48:34.836Z,0.38
2023-05-19T09:51:08.053Z,0.40
2023-05-19T09:56:04.328Z,0.20
2023-05-19T09:58:37.132Z,0.50
2023-05-19T10:01:06.184Z,0.50
2023-05-19T10:03:34.860Z,0.60
2023-05-19T10:06:04.626Z,0.52
2023-05-19T10:08:34.446Z,0.45
2023-05-19T10:11:02.681Z,0.20
2023-05-19T10:13:31.173Z,0.40
2023-05-19T10:16:00.214Z,0.60
2023-05-19T10:18:29.934Z,0.30
2023-05-19T10:20:59.143Z,0.40
2023-05-19T10:23:27.775Z,0.30
2023-05-19T10:25:59.605Z,0.50
2023-05-19T10:28:36.393Z,0.35
2023-05-19T10:31:08.878Z,0.30
2023-05-19T10:33:42.940Z,0.50
2023-05-19T10:36:25.906Z,0.35
2023-05-19T10:39:08.541Z,0.40
2023-05-19T10:41:57.983Z,0.20
2023-05-19T10:44:40.228Z,0.50
2023-05-19T10:47:08.803Z,0.25
2023-05-19T10:49:37.484Z,0.28
2023-05-19T10:52:19.193Z,0.10
2023-05-19T10:54:46.938Z,0.20
2023-05-19T10:57:18.518Z,0.40
2023-05-19T10:59:46.283Z,0.20
2023-05-19T11:02:40.772Z,0.30
2023-05-19T11:05:09.881Z,0.20
2023-05-19T11:07:37.786Z,0.20
2023-05-19T11:10:09.724Z,0.20
2023-05-19T11:12:45.971Z,0.17
2023-05-19T11:15:17.922Z,0.10
2023-05-19T11:17:49.804Z,0.10
2023-05-19T11:20:30.278Z,0.17
2023-05-19T11:23:07.425Z,0.17
2023-05-19T11:25:47.880Z,0.25
2023-05-19T11:28:28.262Z,0.20
2023-05-19T11:30:59.319Z,0.20
2023-05-19T11:33:27.774Z,0.40
2023-05-19T11:35:59.316Z,0.20
2023-05-19T11:38:32.038Z,0.32
2023-05-19T11:41:01.287Z,0.30
2023-05-19T11:43:28.985Z,0.32
2023-05-19T11:45:57.290Z,0.20
2023-05-19T11:48:26.642Z,0.30
2023-05-19T11:50:54.645Z,0.22
2023-05-19T11:53:23.376Z,0.20
2023-05-19T11:55:54.884Z,0.10
2023-05-19T11:58:27.557Z,0.20
2023-05-19T12:00:57.383Z,0.20
2023-05-19T12:03:28.528Z,0.20
2023-05-19T12:05:56.936Z,0.30
2023-05-19T12:08:26.204Z,0.25
2023-05-19T12:10:54.418Z,0.38
2023-05-19T12:13:23.026Z,0.10
2023-05-19T12:15:53.895Z,0.20
2023-05-19T12:18:21.602Z,0.25
2023-05-19T12:20:49.825Z,0.35
2023-05-19T12:23:17.729Z,0.30
2023-05-19T12:25:46.128Z,0.20
2023-05-19T12:28:14.064Z,0.52
2023-05-19T12:30:47.633Z,0.43
2023-05-19T12:33:16.346Z,0.30
2023-05-19T12:35:44.724Z,0.30
2023-05-19T12:38:15.047Z,0.30
2023-05-19T12:40:45.565Z,0.50
2023-05-19T12:43:21.386Z,0.40
2023-05-19T12:45:49.552Z,0.40
2023-05-19T12:48:18.829Z,0.20
2023-05-19T12:50:46.635Z,0.55
2023-05-19T12:53:15.105Z,0.43
2023-05-19T12:55:44.429Z,0.40
2023-05-19T12:58:12.843Z,0.17
2023-05-19T13:00:45.730Z,0.30
2023-05-19T13:03:20.622Z,0.38
2023-05-19T13:05:51.347Z,0.20
2023-05-19T13:08:24.253Z,0.30
2023-05-19T13:10:51.970Z,0.20
2023-05-19T13:13:19.711Z,0.20
2023-05-19T13:15:51.246Z,0.15
2023-05-19T13:18:19.390Z,0.20
2023-05-19T13:20:49.406Z,0.20
2023-05-19T13:23:17.334Z,0.30
2023-05-19T13:25:45.051Z,0.20
2023-05-19T13:28:13.016Z,0.40
2023-05-19T13:30:41.939Z,0.17
2023-05-19T13:33:10.030Z,0.32
2023-05-19T13:35:38.267Z,0.10
2023-05-19T13:38:08.069Z,0.10
2023-05-19T13:40:36.852Z,0.38
2023-05-19T13:43:05.017Z,0.10
2023-05-19T13:45:32.594Z,0.30
2023-05-19T13:48:00.286Z,0.10
2023-05-19T13:50:28.439Z,0.10
2023-05-19T13:52:56.596Z,0.17
2023-05-19T13:55:24.377Z,0.20
2023-05-19T13:57:52.264Z,0.38
2023-05-19T14:00:20.203Z,0.20
2023-05-19T14:02:47.844Z,0.20
2023-05-19T14:05:15.804Z,0.17
2023-05-19T14:07:44.801Z,0.17
2023-05-19T14:10:12.465Z,0.25
2023-05-19T14:12:55.272Z,0.47
2023-05-19T14:15:27.875Z,0.08
2023-05-19T14:17:55.753Z,0.10
2023-05-19T14:20:23.323Z,0.15
2023-05-19T14:22:51.371Z,0.20
2023-05-19T14:25:19.115Z,0.13
2023-05-19T14:27:46.819Z,0.10
2023-05-19T14:30:14.667Z,0.10
2023-05-19T14:32:42.390Z,0.20
2023-05-19T14:35:10.615Z,0.10
2023-05-19T14:37:38.246Z,0.10
2023-05-19T14:40:07.156Z,0.17
2023-05-19T14:42:35.083Z,0.40
2023-05-19T14:45:02.821Z,0.10
2023-05-19T14:47:30.800Z,0.20
2023-05-19T14:49:58.539Z,0.08
2023-05-19T14:52:27.459Z,0.63
2023-05-19T14:54:56.274Z,0.30
2023-05-19T14:57:23.895Z,0.20
2023-05-19T14:59:51.727Z,0.20
2023-05-19T15:02:19.510Z,0.50
2023-05-19T15:04:47.166Z,0.30
2023-05-19T15:07:14.821Z,0.35
2023-05-19T15:09:42.448Z,0.10
2023-05-19T15:12:10.054Z,0.30
2023-05-19T15:14:37.648Z,0.30
2023-05-19T15:17:05.727Z,0.20
2023-05-19T15:19:33.695Z,0.30
2023-05-19T15:22:01.330Z,0.15
2023-05-19T15:24:28.941Z,0.20
2023-05-19T15:26:56.614Z,0.25
2023-05-19T15:29:24.209Z,0.20
2023-05-19T15:31:52.241Z,0.30
2023-05-19T15:34:21.037Z,0.40
2023-05-19T15:36:48.653Z,0.15
2023-05-19T15:39:16.553Z,0.30
2023-05-19T15:41:44.470Z,0.32
2023-05-19T15:44:12.565Z,0.40
2023-05-19T15:46:40.315Z,0.30
2023-05-19T15:49:08.054Z,0.25
2023-05-19T15:51:35.786Z,0.22
2023-05-19T15:54:03.596Z,1.05
2023-05-19T15:56:31.168Z,0.17
2023-05-19T15:58:58.752Z,0.20
2023-05-19T16:01:26.855Z,0.30
2023-05-19T16:03:54.855Z,0.15
2023-05-19T16:06:22.590Z,0.05
2023-05-19T16:08:50.224Z,0.10
2023-05-19T16:11:18.621Z,0.30
2023-05-19T16:13:46.496Z,0.30
2023-05-19T16:16:14.473Z,0.17
2023-05-19T16:18:44.327Z,0.20
2023-05-19T16:21:12.012Z,0.40
2023-05-19T16:23:39.706Z,0.10
2023-05-19T16:26:07.330Z,0.20
2023-05-19T16:28:34.902Z,0.10
2023-05-19T16:31:02.593Z,0.20
2023-05-19T16:33:30.676Z,0.30
2023-05-19T16:36:00.314Z,0.40
2023-05-19T16:38:28.048Z,0.22
2023-05-19T16:40:56.130Z,0.30
2023-05-19T16:43:23.959Z,0.30
2023-05-19T16:45:51.670Z,0.20
2023-05-19T16:48:19.625Z,0.00
2023-05-19T16:50:49.325Z,0.20
2023-05-19T16:53:16.975Z,0.20
2023-05-19T16:55:44.919Z,0.10
2023-05-19T16:58:12.638Z,0.15
2023-05-19T17:00:40.365Z,0.30
2023-05-19T17:03:08.181Z,0.47
2023-05-19T17:05:36.512Z,0.30
2023-05-19T17:08:04.254Z,0.20
2023-05-19T17:10:32.002Z,0.28
2023-05-19T17:12:59.713Z,0.28
2023-05-19T17:15:27.316Z,0.10
2023-05-19T17:17:54.905Z,0.25
2023-05-19T17:20:22.947Z,0.10
2023-05-19T17:22:50.721Z,0.13
2023-05-19T17:25:18.253Z,0.45
2023-05-19T17:27:46.320Z,0.30
2023-05-19T17:30:14.185Z,0.10
2023-05-19T17:32:42.213Z,0.30
2023-05-19T17:35:10.152Z,0.30
2023-05-19T17:37:37.993Z,0.75
2023-05-19T17:40:06.342Z,0.30
2023-05-19T17:42:34.016Z,0.55
2023-05-19T17:45:01.753Z,0.35
2023-05-19T17:47:29.540Z,0.30
2023-05-19T17:49:57.161Z,0.20
2023-05-19T17:52:25.873Z,0.10
2023-05-19T17:54:53.921Z,0.10
2023-05-19T17:57:25.554Z,0.15
2023-05-19T17:59:53.440Z,0.10
2023-05-19T18:02:22.252Z,0.00
2023-05-19T18:04:50.163Z,0.10
2023-05-19T18:07:19.625Z,0.17
2023-05-19T18:09:48.154Z,0.22
2023-05-19T18:12:15.973Z,0.20
2023-05-19T18:14:43.899Z,0.10
2023-05-19T18:17:11.694Z,0.40
2023-05-19T18:19:39.323Z,0.10
2023-05-19T18:22:07.597Z,0.50
2023-05-19T18:24:35.424Z,0.10
2023-05-19T18:27:03.584Z,0.32
2023-05-19T18:29:31.291Z,0.10
2023-05-19T18:31:58.916Z,0.10
2023-05-19T18:34:28.209Z,0.10
2023-05-19T18:36:56.404Z,0.10
2023-05-19T18:39:24.716Z,0.40
2023-05-19T18:41:53.429Z,0.17
2023-05-19T18:44:21.033Z,0.10
2023-05-19T18:46:48.616Z,0.45
2023-05-19T18:49:16.864Z,0.50
2023-05-19T18:51:44.439Z,0.10
2023-05-19T18:54:12.536Z,0.13
2023-05-19T18:56:40.140Z,0.20
2023-05-19T18:59:09.981Z,0.30
2023-05-19T19:01:37.834Z,0.17
2023-05-19T19:04:06.149Z,0.30
2023-05-19T19:06:33.994Z,0.20
2023-05-19T19:09:01.532Z,0.20
2023-05-19T19:11:29.292Z,0.20
2023-05-19T19:13:56.883Z,0.20
2023-05-19T19:16:26.061Z,0.30
2023-05-19T19:18:54.111Z,0.75
2023-05-19T19:21:24.398Z,0.20
2023-05-19T19:23:55.004Z,0.10
2023-05-19T19:26:27.537Z,0.20
2023-05-19T19:28:56.371Z,0.23
2023-05-19T19:31:26.014Z,0.10
2023-05-19T19:33:53.627Z,0.60
2023-05-19T19:36:21.317Z,0.17
2023-05-19T19:38:49.975Z,0.20
2023-05-19T19:41:19.588Z,0.73
2023-05-19T19:43:47.270Z,0.20
2023-05-19T19:46:14.891Z,0.30
2023-05-19T19:48:42.573Z,0.35
2023-05-19T19:51:10.103Z,0.13
2023-05-19T19:53:37.815Z,0.22
2023-05-19T19:56:06.170Z,0.20
2023-05-19T19:58:33.828Z,0.20
2023-05-19T20:01:03.455Z,0.20
2023-05-19T20:03:31.957Z,0.00
2023-05-19T20:05:59.576Z,0.17
2023-05-19T20:08:27.758Z,0.28
2023-05-19T20:10:55.318Z,0.20
2023-05-19T20:13:22.948Z,0.20
2023-05-19T20:15:50.753Z,0.43
2023-05-19T20:18:18.491Z,0.30
2023-05-19T20:20:46.183Z,0.32
2023-05-19T20:23:14.475Z,0.22
2023-05-19T20:25:51.067Z,0.20
2023-05-19T20:28:26.576Z,0.15
2023-05-19T20:30:54.106Z,0.10
2023-05-19T20:33:21.697Z,0.10
2023-05-19T20:35:49.428Z,0.40
2023-05-19T20:38:17.096Z,0.20
2023-05-19T20:40:44.660Z,0.30
2023-05-19T20:43:12.487Z,0.30
2023-05-19T20:45:42.722Z,0.20
2023-05-19T20:48:11.540Z,0.68
2023-05-19T20:50:40.227Z,0.28
2023-05-19T20:53:07.947Z,0.32
2023-05-19T20:55:36.895Z,0.40
2023-05-19T20:58:04.606Z,0.20
2023-05-19T21:00:32.636Z,0.20
2023-05-19T21:03:01.038Z,0.30
2023-05-19T21:05:28.746Z,0.30
2023-05-19T21:07:56.705Z,0.30
2023-05-19T21:10:24.332Z,0.35
2023-05-19T21:12:51.920Z,0.30
2023-05-19T21:15:19.722Z,0.30
2023-05-19T21:17:47.429Z,0.20
2023-05-19T21:20:15.108Z,0.30
2023-05-19T21:22:42.755Z,0.77
2023-05-19T21:25:10.803Z,0.20
2023-05-19T21:27:39.644Z,0.20
2023-05-19T21:30:07.887Z,0.10
2023-05-19T21:32:35.666Z,0.30
2023-05-19T21:35:03.417Z,0.40
2023-05-19T21:37:30.993Z,0.32
2023-05-19T21:39:58.861Z,0.60
2023-05-19T21:42:26.478Z,0.30
2023-05-19T21:44:54.046Z,0.20
2023-05-19T21:47:21.778Z,0.30
2023-05-19T21:49:49.373Z,0.45
2023-05-19T21:52:16.889Z,0.32
2023-05-19T21:54:44.595Z,0.40
2023-05-19T21:57:12.791Z,0.73
2023-05-19T21:59:40.377Z,0.40
2023-05-19T22:02:08.124Z,0.40
2023-05-19T22:04:36.308Z,0.20
2023-05-19T22:07:07.053Z,0.20
2023-05-19T22:09:34.820Z,0.30
2023-05-19T22:12:02.525Z,0.43
2023-05-19T22:14:30.689Z,0.35
2023-05-19T22:16:58.292Z,0.28
2023-05-19T22:19:25.991Z,0.30
2023-05-19T22:22:01.935Z,0.20
2023-05-19T22:24:33.634Z,0.30
2023-05-19T22:27:01.176Z,0.93
2023-05-19T22:29:28.967Z,0.43
2023-05-19T22:31:56.548Z,0.30
2023-05-19T22:34:24.395Z,0.40
2023-05-19T22:36:52.172Z,0.40
2023-05-19T22:39:19.868Z,0.43
2023-05-19T22:41:47.832Z,0.40
2023-05-19T22:44:16.651Z,0.50
2023-05-19T22:46:49.640Z,0.45
2023-05-19T22:49:17.270Z,0.20
2023-05-19T22:51:44.895Z,0.40
2023-05-19T22:54:12.563Z,0.77
2023-05-19T22:56:40.145Z,0.40
2023-05-19T22:59:08.110Z,0.30
2023-05-19T23:01:35.672Z,0.20
2023-05-19T23:04:03.691Z,0.35
2023-05-19T23:06:31.796Z,0.20
2023-05-19T23:09:01.969Z,0.50
2023-05-19T23:11:29.515Z,0.20
2023-05-19T23:13:57.475Z,0.20
2023-05-19T23:16:25.215Z,0.50
2023-05-19T23:18:52.938Z,0.40
2023-05-19T23:21:20.598Z,0.43
2023-05-19T23:23:48.126Z,0.80
2023-05-19T23:26:15.739Z,0.50
2023-05-19T23:28:43.773Z,0.38
2023-05-19T23:31:11.501Z,0.50
2023-05-19T23:33:39.179Z,0.63
2023-05-19T23:36:10.700Z,0.68
2023-05-19T23:38:38.379Z,0.20
2023-05-19T23:41:06.065Z,0.25
2023-05-19T23:43:33.789Z,0.30
2023-05-19T23:46:01.788Z,0.40
2023-05-19T23:48:29.898Z,0.30
2023-05-19T23:50:58.282Z,0.32
2023-05-19T23:53:26.174Z,0.60
2023-05-19T23:55:53.842Z,0.30
2023-05-19T23:58:23.427Z,0.50
